sensor_id;sensor_type;location;lat;lon;timestamp;pressure;altitude;pressure_sealevel;temperature;humidity
14041;BME280;7095;51.388;6.196;2024-01-06T00:00:06;108478.84;;;-145.32;100.00
14041;BME280;7095;51.388;6.196;2024-01-06T00:02:39;108737.41;;;-145.32;100.00
14041;BME280;7095;51.388;6.196;2024-01-06T00:05:08;108737.41;;;-145.32;100.00
14041;BME280;7095;51.388;6.196;2024-01-06T00:07:36;108737.41;;;-145.32;100.00
14041;BME280;7095;51.388;6.196;2024-01-06T00:10:07;108737.41;;;-145.32;100.00
14041;BME280;7095;51.388;6.196;2024-01-06T00:12:36;108737.41;;;-145.32;100.00
14041;BME280;7095;51.388;6.196;2024-01-06T00:15:06;108737.41;;;-145.32;100.00
14041;BME280;7095;51.388;6.196;2024-01-06T00:17:35;108737.41;;;-145.32;100.00
14041;BME280;7095;51.388;6.196;2024-01-06T00:20:05;108737.41;;;-145.32;100.00
14041;BME280;7095;51.388;6.196;2024-01-06T00:22:34;108737.41;;;-145.32;100.00
14041;BME280;7095;51.388;6.196;2024-01-06T00:25:04;108737.41;;;-145.32;100.00
14041;BME280;7095;51.388;6.196;2024-01-06T00:27:35;108737.41;;;-145.32;100.00
14041;BME280;7095;51.388;6.196;2024-01-06T00:30:06;108737.41;;;-145.32;100.00
14041;BME280;7095;51.388;6.196;2024-01-06T00:32:36;108996.00;;;-145.32;100.00
14041;BME280;7095;51.388;6.196;2024-01-06T00:35:05;108996.00;;;-145.32;100.00
14041;BME280;7095;51.388;6.196;2024-01-06T00:37:34;108996.00;;;-145.32;100.00
14041;BME280;7095;51.388;6.196;2024-01-06T00:40:04;108996.00;;;-145.32;100.00
14041;BME280;7095;51.388;6.196;2024-01-06T00:42:34;108737.41;;;-145.32;100.00
14041;BME280;7095;51.388;6.196;2024-01-06T00:45:05;108737.41;;;-145.32;100.00
14041;BME280;7095;51.388;6.196;2024-01-06T00:47:34;108737.41;;;-145.32;100.00
14041;BME280;7095;51.388;6.196;2024-01-06T00:50:03;108737.41;;;-145.32;100.00
14041;BME280;7095;51.388;6.196;2024-01-06T00:52:31;108737.41;;;-145.32;100.00
14041;BME280;7095;51.388;6.196;2024-01-06T00:55:00;108737.41;;;-145.32;100.00
14041;BME280;7095;51.388;6.196;2024-01-06T00:57:29;108737.41;;;-145.32;100.00
14041;BME280;7095;51.388;6.196;2024-01-06T00:59:59;108996.00;;;-145.32;100.00
14041;BME280;7095;51.388;6.196;2024-01-06T01:02:27;108737.41;;;-145.32;100.00
14041;BME280;7095;51.388;6.196;2024-01-06T01:04:56;108737.41;;;-145.32;100.00
14041;BME280;7095;51.388;6.196;2024-01-06T01:07:25;108478.84;;;-145.32;100.00
14041;BME280;7095;51.388;6.196;2024-01-06T01:09:54;108220.28;;;-145.32;100.00
14041;BME280;7095;51.388;6.196;2024-01-06T01:12:29;108220.28;;;-145.32;100.00
14041;BME280;7095;51.388;6.196;2024-01-06T01:15:04;108220.28;;;-145.32;100.00
14041;BME280;7095;51.388;6.196;2024-01-06T01:17:32;107961.72;;;-145.32;100.00
14041;BME280;7095;51.388;6.196;2024-01-06T01:20:02;107961.72;;;-145.32;100.00
14041;BME280;7095;51.388;6.196;2024-01-06T01:22:31;107703.22;;;-145.32;100.00
14041;BME280;7095;51.388;6.196;2024-01-06T01:25:00;107703.22;;;-145.32;100.00
14041;BME280;7095;51.388;6.196;2024-01-06T01:27:32;107703.22;;;-145.32;100.00
14041;BME280;7095;51.388;6.196;2024-01-06T01:30:03;107703.22;;;-145.32;100.00
14041;BME280;7095;51.388;6.196;2024-01-06T01:32:33;107961.72;;;-145.32;100.00
14041;BME280;7095;51.388;6.196;2024-01-06T01:35:02;107961.72;;;-145.32;100.00
14041;BME280;7095;51.388;6.196;2024-01-06T01:37:31;107703.22;;;-145.32;100.00
14041;BME280;7095;51.388;6.196;2024-01-06T01:40:00;107961.72;;;-145.32;100.00
14041;BME280;7095;51.388;6.196;2024-01-06T01:42:29;107961.72;;;-145.32;100.00
14041;BME280;7095;51.388;6.196;2024-01-06T01:44:57;107703.22;;;-145.32;100.00
14041;BME280;7095;51.388;6.196;2024-01-06T01:47:28;107186.22;;;-145.32;100.00
14041;BME280;7095;51.388;6.196;2024-01-06T01:49:57;107186.22;;;-145.32;100.00
14041;BME280;7095;51.388;6.196;2024-01-06T01:52:26;107186.22;;;-145.32;100.00
14041;BME280;7095;51.388;6.196;2024-01-06T01:54:55;106927.75;;;-145.32;100.00
14041;BME280;7095;51.388;6.196;2024-01-06T01:57:25;106669.31;;;-145.32;100.00
14041;BME280;7095;51.388;6.196;2024-01-06T01:59:55;106410.88;;;-145.32;100.00
14041;BME280;7095;51.388;6.196;2024-01-06T02:02:24;106669.31;;;-145.32;100.00
14041;BME280;7095;51.388;6.196;2024-01-06T02:04:55;106927.75;;;-145.32;100.00
14041;BME280;7095;51.388;6.196;2024-01-06T02:07:24;106669.31;;;-145.32;100.00
14041;BME280;7095;51.388;6.196;2024-01-06T02:09:53;106410.88;;;-145.32;100.00
14041;BME280;7095;51.388;6.196;2024-01-06T02:12:21;106410.88;;;-145.32;100.00
14041;BME280;7095;51.388;6.196;2024-01-06T02:14:50;106152.47;;;-145.32;100.00
14041;BME280;7095;51.388;6.196;2024-01-06T02:17:19;106410.88;;;-145.32;100.00
14041;BME280;7095;51.388;6.196;2024-01-06T02:19:48;105894.09;;;-145.32;100.00
14041;BME280;7095;51.388;6.196;2024-01-06T02:22:19;106152.47;;;-145.32;100.00
14041;BME280;7095;51.388;6.196;2024-01-06T02:24:48;106152.47;;;-145.32;100.00
14041;BME280;7095;51.388;6.196;2024-01-06T02:27:17;106152.47;;;-145.32;100.00
14041;BME280;7095;51.388;6.196;2024-01-06T02:29:46;106152.47;;;-145.32;100.00
14041;BME280;7095;51.388;6.196;2024-01-06T02:32:14;105635.72;;;-145.32;100.00
14041;BME280;7095;51.388;6.196;2024-01-06T02:34:43;105894.09;;;-145.32;100.00
14041;BME280;7095;51.388;6.196;2024-01-06T02:37:13;105894.09;;;-145.32;100.00
14041;BME280;7095;51.388;6.196;2024-01-06T02:39:43;105377.34;;;-145.32;100.00
14041;BME280;7095;51.388;6.196;2024-01-06T02:42:12;104860.72;;;-145.32;100.00
14041;BME280;7095;51.388;6.196;2024-01-06T02:44:41;104344.16;;;-145.32;100.00
14041;BME280;7095;51.388;6.196;2024-01-06T02:47:10;104860.72;;;-145.32;100.00
14041;BME280;7095;51.388;6.196;2024-01-06T02:49:39;103569.44;;;-145.32;100.00
14041;BME280;7095;51.388;6.196;2024-01-06T02:52:08;102794.91;;;-145.32;100.00
14041;BME280;7095;51.388;6.196;2024-01-06T02:54:37;103311.25;;;-145.32;100.00
14041;BME280;7095;51.388;6.196;2024-01-06T02:57:08;103569.44;;;-145.32;100.00
14041;BME280;7095;51.388;6.196;2024-01-06T02:59:36;103827.66;;;-145.32;100.00
14041;BME280;7095;51.388;6.196;2024-01-06T03:02:07;103053.06;;;-145.32;100.00
14041;BME280;7095;51.388;6.196;2024-01-06T03:04:36;103827.66;;;-145.32;100.00
14041;BME280;7095;51.388;6.196;2024-01-06T03:07:04;103827.66;;;-145.32;100.00
14041;BME280;7095;51.388;6.196;2024-01-06T03:09:33;102536.75;;;-145.32;100.00
14041;BME280;7095;51.388;6.196;2024-01-06T03:12:02;103053.06;;;-145.32;100.00
14041;BME280;7095;51.388;6.196;2024-01-06T03:14:33;102794.91;;;-145.32;100.00
14041;BME280;7095;51.388;6.196;2024-01-06T03:17:02;103053.06;;;-145.32;100.00
14041;BME280;7095;51.388;6.196;2024-01-06T03:19:31;103053.06;;;-145.32;100.00
14041;BME280;7095;51.388;6.196;2024-01-06T03:22:00;102020.53;;;-145.32;100.00
14041;BME280;7095;51.388;6.196;2024-01-06T03:24:28;102020.53;;;-145.32;100.00
14041;BME280;7095;51.388;6.196;2024-01-06T03:26:58;102020.53;;;-145.32;100.00
14041;BME280;7095;51.388;6.196;2024-01-06T03:29:27;100730.31;;;-145.32;100.00
14041;BME280;7095;51.388;6.196;2024-01-06T03:31:57;100472.31;;;-145.32;100.00
14041;BME280;7095;51.388;6.196;2024-01-06T03:34:25;100988.31;;;-145.32;100.00
14041;BME280;7095;51.388;6.196;2024-01-06T03:36:54;100214.34;;;-145.32;100.00
14041;BME280;7095;51.388;6.196;2024-01-06T03:39:23;100472.31;;;-145.32;100.00
14041;BME280;7095;51.388;6.196;2024-01-06T03:41:52;100214.34;;;-145.32;100.00
14041;BME280;7095;51.388;6.196;2024-01-06T03:44:21;100472.31;;;-145.32;100.00
14041;BME280;7095;51.388;6.196;2024-01-06T03:46:50;100214.34;;;-145.32;100.00
14041;BME280;7095;51.388;6.196;2024-01-06T03:49:19;98924.81;;;-145.32;100.00
14041;BME280;7095;51.388;6.196;2024-01-06T03:51:48;99182.69;;;-145.32;100.00
14041;BME280;7095;51.388;6.196;2024-01-06T03:54:17;98666.94;;;-145.32;100.00
14041;BME280;7095;51.388;6.196;2024-01-06T03:56:46;98666.94;;;-145.32;100.00
14041;BME280;7095;51.388;6.196;2024-01-06T03:59:15;98409.13;;;-145.32;100.00
14041;BME280;7095;51.388;6.196;2024-01-06T04:01:43;99182.69;;;-145.32;100.00
14041;BME280;7095;51.388;6.196;2024-01-06T04:04:13;99182.69;;;-145.32;100.00
14041;BME280;7095;51.388;6.196;2024-01-06T04:06:43;97635.72;;;-145.32;100.00
14041;BME280;7095;51.388;6.196;2024-01-06T04:09:12;97635.72;;;-145.32;100.00
14041;BME280;7095;51.388;6.196;2024-01-06T04:11:45;97893.50;;;-145.32;100.00
14041;BME280;7095;51.388;6.196;2024-01-06T04:14:14;98151.31;;;-145.32;100.00
14041;BME280;7095;51.388;6.196;2024-01-06T04:16:42;97377.97;;;-145.32;100.00
14041;BME280;7095;51.388;6.196;2024-01-06T04:19:11;96347.13;;;-145.32;100.00
14041;BME280;7095;51.388;6.196;2024-01-06T04:21:40;95831.81;;;-145.32;100.00
14041;BME280;7095;51.388;6.196;2024-01-06T04:24:11;95316.59;;;-145.32;100.00
14041;BME280;7095;51.388;6.196;2024-01-06T04:26:40;95316.59;;;-145.32;100.00
14041;BME280;7095;51.388;6.196;2024-01-06T04:29:12;92226.81;;;-145.32;100.00
14041;BME280;7095;51.388;6.196;2024-01-06T04:31:41;91454.81;;;-145.32;100.00
14041;BME280;7095;51.388;6.196;2024-01-06T04:34:10;93513.91;;;-145.32;100.00
14041;BME280;7095;51.388;6.196;2024-01-06T04:36:39;93513.91;;;-145.32;100.00
14041;BME280;7095;51.388;6.196;2024-01-06T04:39:08;91454.81;;;-145.32;100.00
14041;BME280;7095;51.388;6.196;2024-01-06T04:41:39;92484.19;;;-145.32;100.00
14041;BME280;7095;51.388;6.196;2024-01-06T04:44:08;92484.19;;;-145.32;100.00
14041;BME280;7095;51.388;6.196;2024-01-06T04:46:36;92741.59;;;-145.32;100.00
14041;BME280;7095;51.388;6.196;2024-01-06T04:49:05;91969.47;;;-145.32;100.00
14041;BME280;7095;51.388;6.196;2024-01-06T04:51:34;91969.47;;;-145.32;100.00
14041;BME280;7095;51.388;6.196;2024-01-06T04:54:03;92741.59;;;-145.32;100.00
14041;BME280;7095;51.388;6.196;2024-01-06T04:56:32;93256.44;;;-145.32;100.00
14041;BME280;7095;51.388;6.196;2024-01-06T04:59:04;91454.81;;;-145.32;100.00
14041;BME280;7095;51.388;6.196;2024-01-06T05:01:33;89396.97;;;-145.32;100.00
14041;BME280;7095;51.388;6.196;2024-01-06T05:04:02;88368.50;;;-145.32;100.00
14041;BME280;7095;51.388;6.196;2024-01-06T05:06:31;87340.31;;;-145.32;100.00
14041;BME280;7095;51.388;6.196;2024-01-06T05:09:00;88111.41;;;-145.32;100.00
14041;BME280;7095;51.388;6.196;2024-01-06T05:11:29;87083.34;;;-145.32;100.00
14041;BME280;7095;51.388;6.196;2024-01-06T05:13:58;86312.47;;;-145.32;100.00
14041;BME280;7095;51.388;6.196;2024-01-06T05:16:28;86055.56;;;-145.32;100.00
14041;BME280;7095;51.388;6.196;2024-01-06T05:18:57;86569.41;;;-145.32;100.00
14041;BME280;7095;51.388;6.196;2024-01-06T05:21:26;87083.34;;;-145.32;100.00
14041;BME280;7095;51.388;6.196;2024-01-06T05:23:55;86826.34;;;-145.32;100.00
14041;BME280;7095;51.388;6.196;2024-01-06T05:26:24;87083.34;;;-145.32;100.00
14041;BME280;7095;51.388;6.196;2024-01-06T05:28:52;87340.31;;;-145.32;100.00
14041;BME280;7095;51.388;6.196;2024-01-06T05:31:21;86055.56;;;-145.32;100.00
14041;BME280;7095;51.388;6.196;2024-01-06T05:33:51;86055.56;;;-145.32;100.00
14041;BME280;7095;51.388;6.196;2024-01-06T05:36:20;87340.31;;;-145.32;100.00
14041;BME280;7095;51.388;6.196;2024-01-06T05:38:49;87083.34;;;-145.32;100.00
14041;BME280;7095;51.388;6.196;2024-01-06T05:41:19;86312.47;;;-145.32;100.00
14041;BME280;7095;51.388;6.196;2024-01-06T05:43:48;87083.34;;;-145.32;100.00
14041;BME280;7095;51.388;6.196;2024-01-06T05:46:21;88625.56;;;-145.32;100.00
14041;BME280;7095;51.388;6.196;2024-01-06T05:48:50;87597.34;;;-145.32;100.00
14041;BME280;7095;51.388;6.196;2024-01-06T05:51:20;87083.34;;;-145.32;100.00
14041;BME280;7095;51.388;6.196;2024-01-06T05:53:50;88625.56;;;-145.32;100.00
14041;BME280;7095;51.388;6.196;2024-01-06T05:56:24;87597.34;;;-145.32;100.00
14041;BME280;7095;51.388;6.196;2024-01-06T05:58:53;89396.97;;;-145.32;100.00
14041;BME280;7095;51.388;6.196;2024-01-06T06:01:22;88625.56;;;-145.32;100.00
14041;BME280;7095;51.388;6.196;2024-01-06T06:03:52;89139.81;;;-145.32;100.00
14041;BME280;7095;51.388;6.196;2024-01-06T06:06:22;90425.72;;;-145.32;100.00
14041;BME280;7095;51.388;6.196;2024-01-06T06:08:51;90940.22;;;-145.32;100.00
14041;BME280;7095;51.388;6.196;2024-01-06T06:11:20;90168.50;;;-145.32;100.00
14041;BME280;7095;51.388;6.196;2024-01-06T06:13:48;89654.13;;;-145.32;100.00
14041;BME280;7095;51.388;6.196;2024-01-06T06:16:17;90168.50;;;-145.32;100.00
14041;BME280;7095;51.388;6.196;2024-01-06T06:18:46;88882.69;;;-145.32;100.00
14041;BME280;7095;51.388;6.196;2024-01-06T06:21:14;89139.81;;;-145.32;100.00
14041;BME280;7095;51.388;6.196;2024-01-06T06:23:45;87854.38;;;-145.32;100.00
14041;BME280;7095;51.388;6.196;2024-01-06T06:26:14;88625.56;;;-145.32;100.00
14041;BME280;7095;51.388;6.196;2024-01-06T06:28:43;88882.69;;;-145.32;100.00
14041;BME280;7095;51.388;6.196;2024-01-06T06:31:11;86826.34;;;-145.32;100.00
14041;BME280;7095;51.388;6.196;2024-01-06T06:33:40;88368.50;;;-145.32;100.00
14041;BME280;7095;51.388;6.196;2024-01-06T06:36:10;88368.50;;;-145.32;100.00
14041;BME280;7095;51.388;6.196;2024-01-06T06:38:38;87854.38;;;-145.32;100.00
14041;BME280;7095;51.388;6.196;2024-01-06T06:41:08;87083.34;;;-145.32;100.00
14041;BME280;7095;51.388;6.196;2024-01-06T06:43:37;85284.91;;;-145.32;100.00
14041;BME280;7095;51.388;6.196;2024-01-06T06:46:05;87083.34;;;-145.32;100.00
14041;BME280;7095;51.388;6.196;2024-01-06T06:48:34;85541.78;;;-145.32;100.00
14041;BME280;7095;51.388;6.196;2024-01-06T06:51:04;85798.66;;;-145.32;100.00
14041;BME280;7095;51.388;6.196;2024-01-06T06:53:32;83744.16;;;-145.32;100.00
14041;BME280;7095;51.388;6.196;2024-01-06T06:56:03;85541.78;;;-145.32;100.00
14041;BME280;7095;51.388;6.196;2024-01-06T06:58:34;85284.91;;;-145.32;100.00
14041;BME280;7095;51.388;6.196;2024-01-06T07:01:03;85284.91;;;-145.32;100.00
14041;BME280;7095;51.388;6.196;2024-01-06T07:03:32;85284.91;;;-145.32;100.00
14041;BME280;7095;51.388;6.196;2024-01-06T07:06:01;84514.44;;;-145.32;100.00
14041;BME280;7095;51.388;6.196;2024-01-06T07:08:31;85028.06;;;-145.32;100.00
14041;BME280;7095;51.388;6.196;2024-01-06T07:11:01;85028.06;;;-145.32;100.00
14041;BME280;7095;51.388;6.196;2024-01-06T07:13:29;85798.66;;;-145.32;100.00
14041;BME280;7095;51.388;6.196;2024-01-06T07:15:59;85541.78;;;-145.32;100.00
14041;BME280;7095;51.388;6.196;2024-01-06T07:18:44;87854.38;;;-145.32;100.00
14041;BME280;7095;51.388;6.196;2024-01-06T07:21:13;87083.34;;;-145.32;100.00
14041;BME280;7095;51.388;6.196;2024-01-06T07:23:42;86312.47;;;-145.32;100.00
14041;BME280;7095;51.388;6.196;2024-01-06T07:26:11;88368.50;;;-145.32;100.00
14041;BME280;7095;51.388;6.196;2024-01-06T07:28:40;87597.34;;;-145.32;100.00
14041;BME280;7095;51.388;6.196;2024-01-06T07:31:10;88625.56;;;-145.32;100.00
14041;BME280;7095;51.388;6.196;2024-01-06T07:33:39;87854.38;;;-145.32;100.00
14041;BME280;7095;51.388;6.196;2024-01-06T07:36:08;88882.69;;;-145.32;100.00
14041;BME280;7095;51.388;6.196;2024-01-06T07:38:38;89396.97;;;-145.32;100.00
14041;BME280;7095;51.388;6.196;2024-01-06T07:41:06;88625.56;;;-145.32;100.00
14041;BME280;7095;51.388;6.196;2024-01-06T07:43:35;89396.97;;;-145.32;100.00
14041;BME280;7095;51.388;6.196;2024-01-06T07:46:04;90168.50;;;-145.32;100.00
14041;BME280;7095;51.388;6.196;2024-01-06T07:48:35;91712.13;;;-145.32;100.00
14041;BME280;7095;51.388;6.196;2024-01-06T07:51:04;91454.81;;;-145.32;100.00
14041;BME280;7095;51.388;6.196;2024-01-06T07:53:33;91454.81;;;-145.32;100.00
14041;BME280;7095;51.388;6.196;2024-01-06T07:56:02;90940.22;;;-145.32;100.00
14041;BME280;7095;51.388;6.196;2024-01-06T07:58:31;90940.22;;;-145.32;100.00
14041;BME280;7095;51.388;6.196;2024-01-06T08:01:00;91454.81;;;-145.32;100.00
14041;BME280;7095;51.388;6.196;2024-01-06T08:03:30;91197.50;;;-145.32;100.00
14041;BME280;7095;51.388;6.196;2024-01-06T08:06:00;92741.59;;;-145.32;100.00
14041;BME280;7095;51.388;6.196;2024-01-06T08:08:30;92484.19;;;-145.32;100.00
14041;BME280;7095;51.388;6.196;2024-01-06T08:10:59;93771.38;;;-145.32;100.00
14041;BME280;7095;51.388;6.196;2024-01-06T08:13:28;94028.84;;;-145.32;100.00
14041;BME280;7095;51.388;6.196;2024-01-06T08:15:57;94028.84;;;-145.32;100.00
14041;BME280;7095;51.388;6.196;2024-01-06T08:18:26;94286.38;;;-145.32;100.00
14041;BME280;7095;51.388;6.196;2024-01-06T08:20:56;94543.91;;;-145.32;100.00
14041;BME280;7095;51.388;6.196;2024-01-06T08:23:26;94286.38;;;-145.32;100.00
14041;BME280;7095;51.388;6.196;2024-01-06T08:25:55;94801.44;;;-145.32;100.00
14041;BME280;7095;51.388;6.196;2024-01-06T08:28:24;94028.84;;;-145.32;100.00
14041;BME280;7095;51.388;6.196;2024-01-06T08:30:53;93771.38;;;-145.32;100.00
14041;BME280;7095;51.388;6.196;2024-01-06T08:33:22;93513.91;;;-145.32;100.00
14041;BME280;7095;51.388;6.196;2024-01-06T08:35:52;93513.91;;;-145.32;100.00
14041;BME280;7095;51.388;6.196;2024-01-06T08:38:23;94286.38;;;-145.32;100.00
14041;BME280;7095;51.388;6.196;2024-01-06T08:40:53;94286.38;;;-145.32;100.00
14041;BME280;7095;51.388;6.196;2024-01-06T08:43:22;94543.91;;;-145.32;100.00
14041;BME280;7095;51.388;6.196;2024-01-06T08:45:51;94801.44;;;-145.32;100.00
14041;BME280;7095;51.388;6.196;2024-01-06T08:48:20;95316.59;;;-145.32;100.00
14041;BME280;7095;51.388;6.196;2024-01-06T08:50:50;94801.44;;;-145.32;100.00
14041;BME280;7095;51.388;6.196;2024-01-06T08:53:18;95574.19;;;-145.32;100.00
14041;BME280;7095;51.388;6.196;2024-01-06T08:55:47;95574.19;;;-145.32;100.00
14041;BME280;7095;51.388;6.196;2024-01-06T08:58:17;95831.81;;;-145.32;100.00
14041;BME280;7095;51.388;6.196;2024-01-06T09:00:46;95831.81;;;-145.32;100.00
14041;BME280;7095;51.388;6.196;2024-01-06T09:03:15;95831.81;;;-145.32;100.00
14041;BME280;7095;51.388;6.196;2024-01-06T09:05:45;96604.81;;;-145.32;100.00
14041;BME280;7095;51.388;6.196;2024-01-06T09:08:18;96347.13;;;-145.32;100.00
14041;BME280;7095;51.388;6.196;2024-01-06T09:10:47;97120.22;;;-145.32;100.00
14041;BME280;7095;51.388;6.196;2024-01-06T09:13:20;97120.22;;;-145.32;100.00
14041;BME280;7095;51.388;6.196;2024-01-06T09:15:50;96862.50;;;-145.32;100.00
14041;BME280;7095;51.388;6.196;2024-01-06T09:18:19;97120.22;;;-145.32;100.00
14041;BME280;7095;51.388;6.196;2024-01-06T09:20:48;96604.81;;;-145.32;100.00
14041;BME280;7095;51.388;6.196;2024-01-06T09:23:17;96604.81;;;-145.32;100.00
14041;BME280;7095;51.388;6.196;2024-01-06T09:25:49;96862.50;;;-145.32;100.00
14041;BME280;7095;51.388;6.196;2024-01-06T09:28:20;96604.81;;;-145.32;100.00
14041;BME280;7095;51.388;6.196;2024-01-06T09:30:49;97377.97;;;-145.32;100.00
14041;BME280;7095;51.388;6.196;2024-01-06T09:33:20;96604.81;;;-145.32;100.00
14041;BME280;7095;51.388;6.196;2024-01-06T09:35:49;96862.50;;;-145.32;100.00
14041;BME280;7095;51.388;6.196;2024-01-06T09:38:20;97120.22;;;-145.32;100.00
14041;BME280;7095;51.388;6.196;2024-01-06T09:40:50;96347.13;;;-145.32;100.00
14041;BME280;7095;51.388;6.196;2024-01-06T09:43:22;96089.47;;;-145.32;100.00
14041;BME280;7095;51.388;6.196;2024-01-06T09:45:56;96089.47;;;-145.32;100.00
14041;BME280;7095;51.388;6.196;2024-01-06T09:48:29;96089.47;;;-145.32;100.00
14041;BME280;7095;51.388;6.196;2024-01-06T09:51:02;96347.13;;;-145.32;100.00
14041;BME280;7095;51.388;6.196;2024-01-06T09:53:34;96347.13;;;-145.32;100.00
14041;BME280;7095;51.388;6.196;2024-01-06T09:56:06;97120.22;;;-145.32;100.00
14041;BME280;7095;51.388;6.196;2024-01-06T09:58:41;97377.97;;;-145.32;100.00
14041;BME280;7095;51.388;6.196;2024-01-06T10:01:13;96862.50;;;-145.32;100.00
14041;BME280;7095;51.388;6.196;2024-01-06T10:03:43;96347.13;;;-145.32;100.00
14041;BME280;7095;51.388;6.196;2024-01-06T10:06:13;96862.50;;;-145.32;100.00
14041;BME280;7095;51.388;6.196;2024-01-06T10:08:43;97377.97;;;-145.32;100.00
14041;BME280;7095;51.388;6.196;2024-01-06T10:11:13;97377.97;;;-145.32;100.00
14041;BME280;7095;51.388;6.196;2024-01-06T10:13:44;97635.72;;;-145.32;100.00
14041;BME280;7095;51.388;6.196;2024-01-06T10:16:14;97377.97;;;-145.32;100.00
14041;BME280;7095;51.388;6.196;2024-01-06T10:18:43;97635.72;;;-145.32;100.00
14041;BME280;7095;51.388;6.196;2024-01-06T10:21:20;98151.31;;;-145.32;100.00
14041;BME280;7095;51.388;6.196;2024-01-06T10:23:50;98151.31;;;-145.32;100.00
14041;BME280;7095;51.388;6.196;2024-01-06T10:26:19;98666.94;;;-145.32;100.00
14041;BME280;7095;51.388;6.196;2024-01-06T10:28:49;99182.69;;;-145.32;100.00
14041;BME280;7095;51.388;6.196;2024-01-06T10:31:18;99440.56;;;-145.32;100.00
14041;BME280;7095;51.388;6.196;2024-01-06T10:33:47;98409.13;;;-145.32;100.00
14041;BME280;7095;51.388;6.196;2024-01-06T10:36:16;99182.69;;;-145.32;100.00
14041;BME280;7095;51.388;6.196;2024-01-06T10:38:46;98409.13;;;-145.32;100.00
14041;BME280;7095;51.388;6.196;2024-01-06T10:41:16;98666.94;;;-145.32;100.00
14041;BME280;7095;51.388;6.196;2024-01-06T10:43:46;98666.94;;;-145.32;100.00
14041;BME280;7095;51.388;6.196;2024-01-06T10:46:18;98409.13;;;-145.32;100.00
14041;BME280;7095;51.388;6.196;2024-01-06T10:48:47;98666.94;;;-145.32;100.00
14041;BME280;7095;51.388;6.196;2024-01-06T10:51:18;98409.13;;;-145.32;100.00
14041;BME280;7095;51.388;6.196;2024-01-06T10:53:50;98151.31;;;-145.32;100.00
14041;BME280;7095;51.388;6.196;2024-01-06T10:56:20;98151.31;;;-145.32;100.00
14041;BME280;7095;51.388;6.196;2024-01-06T10:58:49;98151.31;;;-145.32;100.00
14041;BME280;7095;51.388;6.196;2024-01-06T11:01:22;98151.31;;;-145.32;100.00
14041;BME280;7095;51.388;6.196;2024-01-06T11:03:57;98924.81;;;-145.32;100.00
14041;BME280;7095;51.388;6.196;2024-01-06T11:06:27;97893.50;;;-145.32;100.00
14041;BME280;7095;51.388;6.196;2024-01-06T11:09:01;97377.97;;;-145.32;100.00
14041;BME280;7095;51.388;6.196;2024-01-06T11:11:31;97635.72;;;-145.32;100.00
14041;BME280;7095;51.388;6.196;2024-01-06T11:14:22;98151.31;;;-145.32;100.00
14041;BME280;7095;51.388;6.196;2024-01-06T11:16:54;97377.97;;;-145.32;100.00
14041;BME280;7095;51.388;6.196;2024-01-06T11:19:43;97893.50;;;-145.32;100.00
14041;BME280;7095;51.388;6.196;2024-01-06T11:22:33;97893.50;;;-145.32;100.00
14041;BME280;7095;51.388;6.196;2024-01-06T11:25:09;97635.72;;;-145.32;100.00
14041;BME280;7095;51.388;6.196;2024-01-06T11:27:43;98151.31;;;-145.32;100.00
14041;BME280;7095;51.388;6.196;2024-01-06T11:30:21;97377.97;;;-145.32;100.00
14041;BME280;7095;51.388;6.196;2024-01-06T11:32:53;96862.50;;;-145.32;100.00
14041;BME280;7095;51.388;6.196;2024-01-06T11:35:22;96862.50;;;-145.32;100.00
14041;BME280;7095;51.388;6.196;2024-01-06T11:37:53;96604.81;;;-145.32;100.00
14041;BME280;7095;51.388;6.196;2024-01-06T11:40:30;95831.81;;;-145.32;100.00
14041;BME280;7095;51.388;6.196;2024-01-06T11:43:02;96604.81;;;-145.32;100.00
14041;BME280;7095;51.388;6.196;2024-01-06T11:45:31;96604.81;;;-145.32;100.00
14041;BME280;7095;51.388;6.196;2024-01-06T11:48:03;96089.47;;;-145.32;100.00
14041;BME280;7095;51.388;6.196;2024-01-06T11:50:34;96347.13;;;-145.32;100.00
14041;BME280;7095;51.388;6.196;2024-01-06T11:53:04;95574.19;;;-145.32;100.00
14041;BME280;7095;51.388;6.196;2024-01-06T11:55:34;94543.91;;;-145.32;100.00
14041;BME280;7095;51.388;6.196;2024-01-06T11:58:03;95574.19;;;-145.32;100.00
14041;BME280;7095;51.388;6.196;2024-01-06T12:00:34;95059.00;;;-145.32;100.00
14041;BME280;7095;51.388;6.196;2024-01-06T12:03:06;94801.44;;;-145.32;100.00
14041;BME280;7095;51.388;6.196;2024-01-06T12:05:34;95574.19;;;-145.32;100.00
14041;BME280;7095;51.388;6.196;2024-01-06T12:08:04;96089.47;;;-145.32;100.00
14041;BME280;7095;51.388;6.196;2024-01-06T12:10:35;95059.00;;;-145.32;100.00
14041;BME280;7095;51.388;6.196;2024-01-06T12:13:05;96089.47;;;-145.32;100.00
14041;BME280;7095;51.388;6.196;2024-01-06T12:15:36;95574.19;;;-145.32;100.00
14041;BME280;7095;51.388;6.196;2024-01-06T12:18:09;94028.84;;;-145.32;100.00
14041;BME280;7095;51.388;6.196;2024-01-06T12:20:37;93771.38;;;-145.32;100.00
14041;BME280;7095;51.388;6.196;2024-01-06T12:23:06;96604.81;;;-145.32;100.00
14041;BME280;7095;51.388;6.196;2024-01-06T12:25:35;96089.47;;;-145.32;100.00
14041;BME280;7095;51.388;6.196;2024-01-06T12:28:07;92741.59;;;-145.32;100.00
14041;BME280;7095;51.388;6.196;2024-01-06T12:30:38;92741.59;;;-145.32;100.00
14041;BME280;7095;51.388;6.196;2024-01-06T12:33:09;93256.44;;;-145.32;100.00
14041;BME280;7095;51.388;6.196;2024-01-06T12:35:38;93513.91;;;-145.32;100.00
14041;BME280;7095;51.388;6.196;2024-01-06T12:38:08;92741.59;;;-145.32;100.00
14041;BME280;7095;51.388;6.196;2024-01-06T12:40:37;91712.13;;;-145.32;100.00
14041;BME280;7095;51.388;6.196;2024-01-06T12:43:06;92226.81;;;-145.32;100.00
14041;BME280;7095;51.388;6.196;2024-01-06T12:45:35;93513.91;;;-145.32;100.00
14041;BME280;7095;51.388;6.196;2024-01-06T12:48:05;91197.50;;;-145.32;100.00
14041;BME280;7095;51.388;6.196;2024-01-06T12:50:35;92484.19;;;-145.32;100.00